Time;durP1;ratioP1;P1;durP2;ratioP2;P2;SDS_P1;SDS_P2;PMS_P1;PMS_P2;Temp;Humidity;BMP_temperature;BMP_pressure;BME280_temperature;BME280_humidity;BME280_pressure;Samples;Min_cycle;Max_cycle;Signal;HPM_P1;HPM_P2
2021/12/06 00:01:36;;;;;;;19.77;12.73;;;;;;;3.57;65.80;99303.44;10391103;28;20057;-68
2021/12/06 00:06:42;;;;;;;13.13;9.38;;;;;;;3.51;65.99;99301.09;10386888;28;20140;-68
2021/12/06 00:11:44;;;;;;;13.95;9.73;;;;;;;3.50;65.93;99312.31;10390856;28;20053;-68
2021/12/06 00:16:46;;;;;;;12.30;7.38;;;;;;;3.40;66.02;99309.28;10389517;28;20383;-68
2021/12/06 00:21:49;;;;;;;17.10;8.80;;;;;;;3.35;66.36;99305.22;10379490;28;20140;-68
2021/12/06 00:26:50;;;;;;;12.25;9.00;;;;;;;3.36;66.22;99306.88;10385817;28;20050;-68
2021/12/06 00:31:53;;;;;;;15.65;11.10;;;;;;;3.38;66.18;99318.00;10382151;28;20135;-69
2021/12/06 00:37:05;;;;;;;15.98;11.50;;;;;;;3.31;66.26;99320.00;10384345;28;20049;-68
2021/12/06 00:42:07;;;;;;;14.90;9.80;;;;;;;3.26;66.46;99331.41;10387335;28;20063;-68
2021/12/06 00:47:09;;;;;;;14.27;10.23;;;;;;;3.28;66.55;99332.19;10387590;28;20050;-68
2021/12/06 00:52:11;;;;;;;15.07;10.13;;;;;;;3.26;66.56;99339.16;10386421;28;20060;-68
2021/12/06 00:57:14;;;;;;;14.07;10.25;;;;;;;3.21;66.47;99341.09;10387118;28;20049;-68
2021/12/06 01:02:16;;;;;;;12.63;9.32;;;;;;;3.17;66.69;99337.81;10386980;28;20046;-68
2021/12/06 01:07:18;;;;;;;13.93;10.50;;;;;;;3.09;66.58;99349.34;10387607;28;20077;-68
2021/12/06 01:12:20;;;;;;;16.83;10.25;;;;;;;3.12;66.60;99349.19;10386169;28;20529;-69
2021/12/06 01:17:21;;;;;;;15.27;10.32;;;;;;;3.11;66.69;99360.44;10382882;28;20083;-68
2021/12/06 01:22:33;;;;;;;15.45;9.55;;;;;;;3.07;66.62;99370.03;10384863;28;20583;-68
2021/12/06 01:28:21;;;;;;;;;;;;;;;2.79;67.42;99382.31;10384884;28;20057;-68
2021/12/06 01:43:27;;;;;;;14.13;9.77;;;;;;;2.93;66.95;99411.03;10385164;28;20059;-68
2021/12/06 01:48:29;;;;;;;15.90;10.13;;;;;;;2.89;67.18;99415.50;10383266;28;20142;-68
2021/12/06 01:53:31;;;;;;;14.85;9.45;;;;;;;2.95;67.29;99420.44;10385411;28;20045;-68
2021/12/06 01:58:34;;;;;;;12.55;8.63;;;;;;;3.11;66.90;99425.03;10384685;28;20049;-68
2021/12/06 02:03:36;;;;;;;14.90;9.88;;;;;;;3.16;66.73;99429.13;10383915;28;20136;-68
2021/12/06 02:08:37;;;;;;;13.93;9.50;;;;;;;3.18;66.46;99432.50;10384282;28;20208;-68
2021/12/06 02:13:50;;;;;;;17.00;9.48;;;;;;;3.17;66.53;99437.72;10384419;28;20084;-68
2021/12/06 02:19:00;;;;;;;14.60;10.02;;;;;;;2.99;66.76;99434.06;10383968;28;20068;-68
2021/12/06 02:24:07;;;;;;;16.77;10.90;;;;;;;2.87;66.99;99442.25;10384276;28;20057;-68
2021/12/06 02:29:09;;;;;;;16.38;9.75;;;;;;;2.97;67.00;99448.78;10384005;28;20492;-68
2021/12/06 02:34:11;;;;;;;14.20;9.95;;;;;;;3.03;66.90;99435.63;10382932;28;20504;-68
2021/12/06 02:39:20;;;;;;;14.52;10.25;;;;;;;2.96;66.94;99442.78;10383729;28;20054;-68
2021/12/06 02:44:22;;;;;;;13.43;8.73;;;;;;;2.92;67.03;99451.56;10383590;28;20045;-68
2021/12/06 02:49:24;;;;;;;13.38;9.48;;;;;;;2.95;67.01;99466.91;10383253;28;20048;-68
2021/12/06 02:54:26;;;;;;;14.88;11.18;;;;;;;2.98;67.05;99476.31;10383402;28;20053;-68
2021/12/06 02:59:28;;;;;;;13.52;9.73;;;;;;;2.98;66.98;99466.81;10388480;28;20053;-68
2021/12/06 03:04:30;;;;;;;12.25;9.43;;;;;;;2.95;67.05;99472.09;10393691;28;20056;-68
2021/12/06 03:09:37;;;;;;;14.65;10.05;;;;;;;2.87;67.16;99468.94;10398641;28;20512;-67
2021/12/06 03:14:43;;;;;;;14.15;9.77;;;;;;;2.95;67.16;99481.56;10398118;28;20073;-68
2021/12/06 03:19:45;;;;;;;15.30;9.82;;;;;;;2.96;66.86;99486.69;10398690;28;20057;-67
2021/12/06 03:24:47;;;;;;;18.08;10.93;;;;;;;2.90;66.99;99479.16;10398164;28;20233;-68
2021/12/06 03:29:49;;;;;;;14.77;10.25;;;;;;;2.94;66.93;99490.22;10398142;28;20052;-68
2021/12/06 03:34:50;;;;;;;13.77;10.18;;;;;;;2.89;67.03;99494.69;10397757;28;20406;-69
2021/12/06 03:39:53;;;;;;;17.65;10.25;;;;;;;2.95;66.97;99497.91;10398665;28;20415;-69
2021/12/06 03:44:55;;;;;;;15.00;10.57;;;;;;;2.97;66.70;99508.19;10398904;28;20050;-68
2021/12/06 03:49:57;;;;;;;15.88;10.82;;;;;;;2.93;66.84;99510.03;10397535;28;20041;-67
2021/12/06 03:55:02;;;;;;;13.18;10.48;;;;;;;2.91;66.96;99509.25;10398444;28;20049;-68
2021/12/06 04:00:06;;;;;;;15.63;10.52;;;;;;;2.95;66.98;99521.16;10397811;28;20535;-67
2021/12/06 04:05:08;;;;;;;14.15;10.43;;;;;;;2.93;66.86;99525.53;10394213;28;20053;-68
2021/12/06 04:10:10;;;;;;;14.13;10.38;;;;;;;2.85;67.11;99524.97;10391076;28;20317;-68
2021/12/06 04:15:14;;;;;;;16.30;10.85;;;;;;;2.85;67.29;99524.97;10390837;28;20148;-68
2021/12/06 04:20:16;;;;;;;14.95;10.95;;;;;;;2.80;66.94;99534.63;10390357;28;20063;-68
2021/12/06 04:25:19;;;;;;;16.45;12.45;;;;;;;2.78;66.92;99540.72;10390148;28;20167;-68
2021/12/06 04:30:23;;;;;;;17.60;11.80;;;;;;;2.68;67.25;99545.34;10390378;28;20060;-68
2021/12/06 04:35:26;;;;;;;19.52;12.65;;;;;;;2.71;67.14;99546.97;10389480;28;20672;-67
2021/12/06 04:40:28;;;;;;;18.15;12.75;;;;;;;2.78;67.17;99562.25;10390214;28;20053;-68
2021/12/06 04:45:30;;;;;;;15.00;11.50;;;;;;;2.82;66.98;99556.06;10389226;28;20240;-68
2021/12/06 04:50:34;;;;;;;14.77;11.52;;;;;;;2.82;66.95;99563.81;10388641;28;20057;-68
2021/12/06 04:55:51;;;;;;;15.27;10.60;;;;;;;2.82;67.23;99566.41;10384787;28;20054;-68
2021/12/06 05:01:08;;;;;;;15.27;11.40;;;;;;;2.85;67.21;99570.59;10389277;28;20057;-68
2021/12/06 05:06:20;;;;;;;16.25;11.45;;;;;;;2.91;67.19;99580.72;10388478;28;20049;-68
2021/12/06 05:11:24;;;;;;;20.20;13.88;;;;;;;2.96;66.99;99592.59;10387739;28;20098;-68
2021/12/06 05:16:26;;;;;;;17.83;12.45;;;;;;;2.98;66.89;99600.28;10387879;28;20308;-68
2021/12/06 05:21:28;;;;;;;15.27;10.65;;;;;;;2.78;67.27;99608.72;10385466;28;20054;-67
2021/12/06 05:26:30;;;;;;;18.10;12.48;;;;;;;2.75;67.21;99613.97;10387869;28;20092;-68
2021/12/06 05:31:34;;;;;;;18.83;12.82;;;;;;;2.65;67.18;99625.50;10387872;28;20175;-67
2021/12/06 05:36:37;;;;;;;13.52;10.27;;;;;;;2.66;67.43;99634.09;10373300;28;20076;-68
2021/12/06 05:41:40;;;;;;;15.15;11.30;;;;;;;2.71;67.46;99635.63;10381958;28;20120;-67
2021/12/06 05:46:41;;;;;;;15.50;11.55;;;;;;;2.81;67.35;99649.06;10384972;28;20160;-68
2021/12/06 05:51:43;;;;;;;18.13;13.38;;;;;;;2.90;67.14;99659.97;10380546;28;20052;-68
2021/12/06 05:56:45;;;;;;;14.63;11.00;;;;;;;2.83;67.03;99673.09;10386193;28;20820;-67
2021/12/06 06:01:49;;;;;;;20.55;13.35;;;;;;;2.83;67.20;99689.44;10381833;28;20429;-68
2021/12/06 06:06:51;;;;;;;19.92;13.75;;;;;;;2.86;67.19;99689.38;10381470;28;20056;-68
2021/12/06 06:11:53;;;;;;;16.27;12.05;;;;;;;2.81;67.11;99699.00;10384623;28;20059;-67
2021/12/06 06:16:56;;;;;;;16.20;10.80;;;;;;;2.71;67.20;99692.44;10385565;28;20060;-67
2021/12/06 06:21:58;;;;;;;15.15;10.73;;;;;;;2.75;67.42;99701.75;10384397;28;20047;-67
2021/12/06 06:27:00;;;;;;;16.25;11.38;;;;;;;2.80;67.23;99710.22;10385812;28;20055;-67
2021/12/06 06:32:03;;;;;;;18.80;12.77;;;;;;;2.86;66.90;99715.19;10383964;28;20128;-68
2021/12/06 06:37:05;;;;;;;22.98;12.80;;;;;;;2.86;67.01;99716.91;10383837;28;20405;-68
2021/12/06 06:42:07;;;;;;;19.50;12.88;;;;;;;2.87;67.04;99714.28;10385772;28;20556;-68
2021/12/06 06:47:09;;;;;;;25.02;15.00;;;;;;;2.83;67.07;99730.78;10384796;28;20511;-67
2021/12/06 06:52:11;;;;;;;22.77;14.45;;;;;;;2.84;67.23;99731.63;10383613;28;20056;-67
2021/12/06 06:57:13;;;;;;;37.00;21.63;;;;;;;2.89;67.09;99733.16;10384798;28;20037;-67
2021/12/06 07:02:15;;;;;;;21.73;12.80;;;;;;;2.81;67.34;99737.72;10384289;28;20308;-68
2021/12/06 07:07:17;;;;;;;21.25;13.73;;;;;;;2.80;67.15;99730.88;10384932;28;20093;-68
2021/12/06 07:12:19;;;;;;;22.98;14.10;;;;;;;2.77;67.09;99733.53;10385110;28;20439;-68
2021/12/06 07:17:21;;;;;;;18.77;13.13;;;;;;;2.81;67.20;99742.88;10384328;28;20111;-68
2021/12/06 07:22:22;;;;;;;24.67;12.75;;;;;;;2.80;67.07;99741.22;10383974;28;20326;-68
2021/12/06 07:27:24;;;;;;;25.48;15.35;;;;;;;2.83;67.09;99745.41;10384648;28;20048;-68
2021/12/06 07:32:26;;;;;;;23.95;14.85;;;;;;;2.82;67.20;99741.16;10383708;28;20049;-68
2021/12/06 07:37:28;;;;;;;20.17;14.23;;;;;;;2.86;67.05;99745.34;10384022;28;20068;-68
2021/12/06 07:42:30;;;;;;;20.88;13.98;;;;;;;2.90;67.06;99758.09;10384007;28;20049;-67
2021/12/06 07:47:32;;;;;;;20.95;13.00;;;;;;;2.93;66.92;99763.16;10391689;28;20939;-68
2021/12/06 07:52:35;;;;;;;23.55;15.55;;;;;;;2.95;66.83;99766.53;10391240;28;20085;-68
2021/12/06 07:57:37;;;;;;;14.98;11.48;;;;;;;2.86;66.85;99773.75;10390385;28;20059;-68
2021/12/06 08:02:39;;;;;;;19.63;12.48;;;;;;;2.69;67.22;99779.41;10391853;28;20068;-68
2021/12/06 08:07:44;;;;;;;15.48;11.60;;;;;;;2.71;67.34;99775.06;10390605;28;20049;-67
2021/12/06 08:12:46;;;;;;;21.30;14.50;;;;;;;2.84;67.22;99776.38;10389497;28;20528;-68
2021/12/06 08:17:47;;;;;;;19.17;13.95;;;;;;;2.93;66.86;99777.81;10387432;28;20064;-67
2021/12/06 08:22:49;;;;;;;22.42;15.32;;;;;;;3.10;67.17;99777.28;10389726;28;20342;-67
2021/12/06 08:27:51;;;;;;;19.20;13.63;;;;;;;3.29;66.74;99770.63;10388151;28;20421;-68
2021/12/06 08:32:57;;;;;;;19.55;13.40;;;;;;;3.27;66.59;99755.19;10387632;28;20560;-67
2021/12/06 08:38:08;;;;;;;19.80;14.10;;;;;;;3.22;66.52;99748.47;10388869;28;20049;-74
2021/12/06 08:43:16;;;;;;;18.50;12.82;;;;;;;3.09;66.91;99752.34;10388958;28;20055;-83
2021/12/06 08:48:20;;;;;;;18.38;12.93;;;;;;;2.92;66.89;99751.16;10385964;28;20497;-75
2021/12/06 08:53:22;;;;;;;23.95;16.40;;;;;;;2.74;67.12;99751.72;10389656;28;20077;-75
2021/12/06 08:58:24;;;;;;;21.83;14.82;;;;;;;2.68;67.18;99746.72;10387837;28;20132;-76
2021/12/06 09:03:26;;;;;;;20.83;14.48;;;;;;;2.92;67.24;99758.91;10389381;28;20176;-76
2021/12/06 09:08:29;;;;;;;20.90;13.43;;;;;;;3.22;66.70;99757.06;10388875;28;20454;-75
2021/12/06 09:13:32;;;;;;;17.33;13.30;;;;;;;3.44;66.51;99759.78;10389287;28;20041;-76
2021/12/06 09:18:38;;;;;;;21.00;14.65;;;;;;;3.43;66.29;99764.13;10386618;28;20239;-76
2021/12/06 09:23:41;;;;;;;26.67;16.70;;;;;;;3.37;66.41;99768.66;10389114;28;20433;-76
2021/12/06 09:28:43;;;;;;;29.40;18.25;;;;;;;3.35;66.49;99771.28;10387467;28;20045;-76
2021/12/06 09:33:45;;;;;;;24.67;15.32;;;;;;;3.41;66.41;99768.50;10388094;28;20045;-77
2021/12/06 09:38:47;;;;;;;26.63;16.20;;;;;;;3.36;66.33;99770.38;10387841;28;20148;-76
2021/12/06 09:43:52;;;;;;;21.88;14.43;;;;;;;3.39;66.27;99772.03;10388153;28;20056;-77
2021/12/06 09:48:54;;;;;;;25.33;17.08;;;;;;;3.35;66.08;99767.84;10387543;28;20203;-77
2021/12/06 09:53:57;;;;;;;36.17;23.00;;;;;;;3.38;66.26;99768.59;10388983;28;20428;-78
2021/12/06 09:59:02;;;;;;;31.63;20.33;;;;;;;3.38;66.41;99775.47;10387368;28;20053;-78
2021/12/06 10:04:07;;;;;;;33.60;20.83;;;;;;;3.39;66.38;99772.03;10386727;28;20688;-78
2021/12/06 10:09:11;;;;;;;29.00;17.77;;;;;;;3.45;66.32;99761.47;10387129;28;20596;-76
2021/12/06 10:14:15;;;;;;;34.40;20.27;;;;;;;3.48;66.25;99776.88;10386474;28;20057;-76
2021/12/06 10:19:18;;;;;;;26.95;19.05;;;;;;;3.59;66.26;99774.78;10386639;28;20401;-78
2021/12/06 10:24:23;;;;;;;31.38;20.73;;;;;;;3.90;65.87;99774.59;10388922;28;20099;-79
2021/12/06 10:29:32;;;;;;;25.05;18.77;;;;;;;3.85;65.81;99761.81;10388047;28;20033;-77
2021/12/06 10:34:34;;;;;;;31.10;20.30;;;;;;;4.32;65.58;99750.59;10386492;28;20403;-79
2021/12/06 10:39:36;;;;;;;27.42;18.85;;;;;;;4.93;64.55;99736.13;10387883;28;20080;-79
2021/12/06 10:44:50;;;;;;;24.08;17.83;;;;;;;5.18;63.30;99723.88;10386959;28;20130;-78
2021/12/06 10:49:51;;;;;;;23.35;16.88;;;;;;;4.81;64.09;99718.50;10386742;28;20049;-77
2021/12/06 10:54:55;;;;;;;20.60;15.43;;;;;;;4.76;64.38;99706.63;10388498;28;20124;-78
2021/12/06 10:59:57;;;;;;;23.65;17.10;;;;;;;4.64;64.54;99702.75;10387795;28;20045;-79
2021/12/06 11:05:01;;;;;;;21.80;16.48;;;;;;;4.50;64.79;99711.06;10384713;28;20053;-77
2021/12/06 11:10:05;;;;;;;26.10;18.35;;;;;;;4.59;64.96;99721.09;10381083;28;20092;-76
2021/12/06 11:15:14;;;;;;;23.65;17.13;;;;;;;4.68;64.69;99704.31;10383350;28;20544;-77
2021/12/06 11:20:21;;;;;;;23.13;17.60;;;;;;;4.63;64.63;99709.69;10388269;28;20121;-76
2021/12/06 11:25:31;;;;;;;23.42;16.63;;;;;;;4.69;64.71;99709.47;10392861;28;20180;-75
2021/12/06 11:30:34;;;;;;;21.07;16.70;;;;;;;4.77;64.89;99709.16;10391470;28;20405;-75
2021/12/06 11:35:36;;;;;;;23.48;16.25;;;;;;;4.85;64.70;99714.88;10390207;28;20049;-75
2021/12/06 11:40:39;;;;;;;26.73;16.33;;;;;;;4.76;64.57;99709.22;10392507;28;20417;-75
2021/12/06 11:45:48;;;;;;;22.08;15.45;;;;;;;4.76;64.90;99710.03;10391939;28;20056;-75
2021/12/06 11:50:58;;;;;;;22.85;16.27;;;;;;;5.07;64.44;99700.13;10381312;28;20057;-74
2021/12/06 11:56:10;;;;;;;19.70;14.38;;;;;;;5.22;63.72;99712.47;10386084;28;20523;-74
2021/12/06 12:01:19;;;;;;;24.30;16.13;;;;;;;5.15;63.66;99707.59;10391565;28;20057;-74
2021/12/06 12:06:27;;;;;;;21.10;15.43;;;;;;;4.83;64.32;99702.88;10389000;28;20551;-73
2021/12/06 12:11:29;;;;;;;22.83;16.58;;;;;;;4.69;64.98;99698.25;10389500;28;20075;-76
2021/12/06 12:16:30;;;;;;;24.45;17.45;;;;;;;4.59;65.12;99684.81;10390593;28;20057;-74
2021/12/06 12:21:32;;;;;;;21.38;15.82;;;;;;;4.79;65.22;99683.19;10390455;28;20519;-74
2021/12/06 12:26:35;;;;;;;21.85;15.95;;;;;;;4.92;64.85;99674.88;10390100;28;20056;-74
2021/12/06 12:31:37;;;;;;;23.13;16.75;;;;;;;4.87;64.85;99662.97;10388325;28;20485;-74
2021/12/06 12:36:38;;;;;;;22.10;16.73;;;;;;;4.80;65.09;99658.97;10388474;28;20049;-73
2021/12/06 12:41:48;;;;;;;26.42;17.40;;;;;;;4.81;65.30;99658.03;10389999;28;20561;-73
2021/12/06 12:46:53;;;;;;;26.33;16.92;;;;;;;4.84;65.15;99652.75;10389099;28;20497;-73
2021/12/06 12:52:00;;;;;;;22.60;16.85;;;;;;;4.89;64.67;99643.03;10389217;28;20601;-73
2021/12/06 12:57:12;;;;;;;24.27;17.20;;;;;;;4.80;64.78;99636.47;10387799;28;20059;-73
2021/12/06 13:02:25;;;;;;;26.77;17.67;;;;;;;5.07;64.65;99624.97;10375644;28;20053;-73
2021/12/06 13:07:32;;;;;;;23.50;18.58;;;;;;;5.19;64.34;99629.63;10370129;28;20065;-73
2021/12/06 13:13:32;;;;;;;24.42;17.45;;;;;;;5.36;63.54;99621.13;10387407;28;20067;-73
2021/12/06 13:24:12;;;;;;;26.40;18.08;;;;;;;5.37;63.46;99617.66;10359689;28;20049;-73
2021/12/06 13:29:23;;;;;;;28.42;19.70;;;;;;;5.31;63.42;99613.53;10385896;28;20555;-73
2021/12/06 13:34:29;;;;;;;30.42;20.02;;;;;;;5.24;63.74;99606.13;10385681;28;20659;-73
2021/12/06 13:39:45;;;;;;;26.00;17.83;;;;;;;4.96;64.13;99600.41;10381693;28;20051;-74
2021/12/06 13:44:50;;;;;;;27.55;18.70;;;;;;;4.97;64.37;99609.88;10381723;28;20050;-74
2021/12/06 13:50:10;;;;;;;25.42;17.73;;;;;;;5.04;63.85;99606.97;10383444;28;20057;-74
2021/12/06 13:55:27;;;;;;;20.65;15.38;;;;;;;5.17;63.67;99607.28;10383379;28;20064;-73
2021/12/06 14:00:42;;;;;;;19.85;13.15;;;;;;;5.30;62.87;99590.28;10382825;28;20205;-73
2021/12/06 14:05:48;;;;;;;16.80;11.38;;;;;;;5.38;62.63;99583.88;10384447;28;20049;-76
2021/12/06 14:10:55;;;;;;;17.80;11.30;;;;;;;5.33;62.49;99590.97;10383966;28;20453;-73
2021/12/06 14:16:02;;;;;;;11.57;8.23;;;;;;;5.37;61.97;99591.72;10383973;28;20123;-74
2021/12/06 14:21:04;;;;;;;8.80;5.22;;;;;;;5.44;61.05;99598.31;10382573;28;20282;-74
2021/12/06 14:26:06;;;;;;;8.80;5.88;;;;;;;5.57;61.00;99593.41;10384365;28;20057;-73
2021/12/06 14:31:09;;;;;;;11.10;6.95;;;;;;;5.61;60.92;99585.44;10383718;28;20051;-72
2021/12/06 14:36:11;;;;;;;8.40;4.75;;;;;;;5.63;60.17;99586.22;10378347;28;20046;-73
2021/12/06 14:41:13;;;;;;;8.15;5.60;;;;;;;5.72;60.37;99571.94;10381111;28;20056;-73
2021/12/06 14:46:14;;;;;;;8.45;5.15;;;;;;;5.73;60.16;99558.94;10379114;28;20494;-73
2021/12/06 14:51:17;;;;;;;16.23;8.55;;;;;;;5.71;59.66;99571.13;10378597;28;20057;-73
2021/12/06 15:01:37;;;;;;;14.32;7.72;;;;;;;5.44;59.83;99556.81;10378478;28;20112;-73
2021/12/06 15:06:39;;;;;;;9.60;5.90;;;;;;;5.32;60.29;99554.75;10382469;28;20421;-73
2021/12/06 15:11:42;;;;;;;8.77;5.30;;;;;;;5.17;60.04;99542.47;10381503;28;20053;-73
2021/12/06 15:16:44;;;;;;;9.68;5.93;;;;;;;5.07;60.17;99523.88;10379502;28;20144;-74
2021/12/06 15:21:50;;;;;;;7.38;5.15;;;;;;;4.97;60.60;99520.03;10380672;28;20051;-73
2021/12/06 15:26:55;;;;;;;8.45;5.00;;;;;;;5.01;60.96;99520.72;10397761;28;20771;-73
2021/12/06 15:32:01;;;;;;;7.10;5.22;;;;;;;5.03;60.45;99513.72;10383706;28;20056;-73
2021/12/06 15:37:03;;;;;;;9.32;5.93;;;;;;;4.80;60.79;99486.22;10383418;28;20406;-72
2021/12/06 15:42:13;;;;;;;9.55;5.88;;;;;;;4.63;60.97;99494.72;10382632;28;20112;-74
2021/12/06 15:47:19;;;;;;;9.98;6.00;;;;;;;4.46;60.66;99494.59;10383915;28;20059;-73
2021/12/06 15:52:27;;;;;;;8.55;5.32;;;;;;;4.33;60.49;99496.00;10378177;28;20523;-72
2021/12/06 15:57:50;;;;;;;9.23;5.55;;;;;;;4.00;60.74;99493.94;10381406;28;20819;-73
2021/12/06 16:02:55;;;;;;;11.15;6.00;;;;;;;3.78;61.18;99499.09;10380066;28;20140;-74
2021/12/06 16:08:06;;;;;;;8.95;6.15;;;;;;;3.55;61.57;99501.72;10384802;28;20053;-68
2021/12/06 16:13:12;;;;;;;10.50;5.38;;;;;;;3.33;61.82;99508.59;10389039;28;20146;-68
2021/12/06 16:18:18;;;;;;;11.02;6.20;;;;;;;3.22;62.01;99519.31;10389508;28;20057;-68
2021/12/06 16:23:27;;;;;;;9.75;5.70;;;;;;;3.09;62.05;99504.34;10385287;28;20060;-68
2021/12/06 16:28:30;;;;;;;8.75;5.13;;;;;;;3.04;62.32;99502.75;10384751;28;20076;-67
2021/12/06 16:33:56;;;;;;;9.52;5.35;;;;;;;3.03;62.07;99506.22;10387020;28;20128;-68
2021/12/06 16:39:07;;;;;;;10.38;5.30;;;;;;;3.03;61.95;99511.41;10385631;28;20050;-68
2021/12/06 16:44:46;;;;;;;11.25;6.35;;;;;;;3.05;61.88;99506.16;10386774;28;20053;-67
2021/12/06 16:50:05;;;;;;;10.70;5.88;;;;;;;3.11;61.78;99518.84;10386377;28;20049;-68
2021/12/06 16:55:16;;;;;;;14.73;6.47;;;;;;;3.28;61.34;99521.69;10386586;28;20080;-68
2021/12/06 17:00:18;;;;;;;;;;;;;;;3.13;61.02;99521.41;10385712;28;20136;-68
2021/12/06 17:05:53;;;;;;;14.10;6.38;;;;;;;3.37;61.02;99499.84;10381812;28;19932;-68
2021/12/06 17:10:57;;;;;;;8.93;5.88;;;;;;;3.48;60.88;99493.34;10383281;28;20518;-68
2021/12/06 17:16:03;;;;;;;8.52;5.70;;;;;;;3.44;60.70;99485.75;10382114;28;20573;-68
2021/12/06 17:21:15;;;;;;;11.90;6.85;;;;;;;3.50;60.55;99488.13;10382631;28;20251;-68
2021/12/06 17:26:20;;;;;;;8.80;6.20;;;;;;;3.52;60.92;99484.56;10384487;28;20045;-68
2021/12/06 17:31:28;;;;;;;9.88;6.10;;;;;;;3.48;60.87;99484.75;10385096;28;20050;-68
2021/12/06 17:36:35;;;;;;;15.10;9.73;;;;;;;3.54;61.04;99492.25;10379844;28;20566;-68
2021/12/06 17:41:39;;;;;;;11.07;7.50;;;;;;;3.66;60.69;99499.59;10384322;28;20141;-68
2021/12/06 17:46:41;;;;;;;13.32;9.10;;;;;;;3.68;60.91;99495.19;10382090;28;20372;-67
2021/12/06 17:51:46;;;;;;;11.85;6.18;;;;;;;3.67;61.03;99483.16;10379306;28;20050;-68
2021/12/06 17:56:50;;;;;;;11.63;7.20;;;;;;;3.64;61.03;99484.09;10377100;28;20468;-68
2021/12/06 18:02:05;;;;;;;10.02;6.85;;;;;;;3.58;60.45;99494.69;10378448;28;20053;-68
2021/12/06 18:07:08;;;;;;;;;;;;;;;3.28;60.78;99492.41;10372832;28;20064;-68
2021/12/06 18:12:12;;;;;;;14.60;7.47;;;;;;;3.53;60.80;99475.94;10381541;28;19925;-68
2021/12/06 18:17:14;;;;;;;9.00;6.10;;;;;;;3.51;60.59;99463.97;10373062;28;20053;-68
2021/12/06 18:22:16;;;;;;;9.10;6.03;;;;;;;3.42;60.22;99448.78;10380589;28;20049;-68
2021/12/06 18:27:20;;;;;;;9.80;6.32;;;;;;;3.23;60.62;99432.31;10381349;28;20046;-68
2021/12/06 18:32:23;;;;;;;9.60;6.60;;;;;;;3.03;61.27;99439.06;10378059;28;20071;-68
2021/12/06 18:37:27;;;;;;;11.27;6.13;;;;;;;2.99;60.82;99442.66;10377681;28;20037;-68
2021/12/06 18:42:29;;;;;;;10.93;6.13;;;;;;;2.79;60.87;99450.28;10378330;28;20053;-68
2021/12/06 18:47:36;;;;;;;8.63;6.00;;;;;;;2.90;61.04;99447.31;10381964;28;20148;-68
2021/12/06 18:52:40;;;;;;;11.90;6.63;;;;;;;2.97;60.92;99443.59;10383635;28;20492;-68
2021/12/06 18:57:42;;;;;;;8.90;5.80;;;;;;;2.93;61.10;99440.31;10381264;28;20054;-67
2021/12/06 19:02:44;;;;;;;9.50;5.50;;;;;;;2.98;60.53;99430.66;10382669;28;20545;-67
2021/12/06 19:07:49;;;;;;;9.38;6.10;;;;;;;3.02;60.62;99421.91;10380385;28;20136;-63
2021/12/06 19:12:52;;;;;;;11.43;6.63;;;;;;;3.08;60.63;99418.22;10383527;28;20049;-67
2021/12/06 19:17:54;;;;;;;9.07;5.43;;;;;;;3.10;60.64;99416.44;10383102;28;20064;-67
2021/12/06 19:22:56;;;;;;;6.60;4.47;;;;;;;3.00;60.32;99387.53;10383631;28;20053;-67
2021/12/06 19:27:58;;;;;;;9.48;6.50;;;;;;;3.05;60.15;99395.94;10382862;28;20042;-67
2021/12/06 19:33:00;;;;;;;7.20;5.22;;;;;;;3.01;60.43;99380.59;10383014;28;20049;-67
2021/12/06 19:38:03;;;;;;;8.82;5.20;;;;;;;3.02;60.28;99377.97;10383011;28;20049;-67
2021/12/06 19:43:06;;;;;;;8.57;5.15;;;;;;;3.09;59.89;99351.91;10387040;28;20064;-67
2021/12/06 19:48:09;;;;;;;9.55;5.35;;;;;;;3.11;60.05;99338.00;10384434;28;20053;-67
2021/12/06 19:53:12;;;;;;;8.38;4.97;;;;;;;3.13;60.23;99325.88;10388160;28;20046;-67
2021/12/06 19:58:15;;;;;;;6.20;4.32;;;;;;;3.15;60.09;99320.69;10388413;28;20515;-67
2021/12/06 20:03:17;;;;;;;8.10;4.72;;;;;;;3.01;60.27;99322.03;10386322;28;20051;-67
2021/12/06 20:08:24;;;;;;;7.07;4.47;;;;;;;3.00;60.08;99315.22;10389556;28;20060;-67
2021/12/06 20:13:29;;;;;;;8.55;5.38;;;;;;;3.08;60.05;99301.97;10388351;28;20354;-67
2021/12/06 20:18:32;;;;;;;8.23;5.40;;;;;;;3.11;60.03;99288.94;10387163;28;20095;-67
2021/12/06 20:23:35;;;;;;;8.68;5.18;;;;;;;3.21;60.19;99281.69;10387368;28;20064;-67
2021/12/06 20:28:38;;;;;;;9.93;5.18;;;;;;;3.12;60.13;99280.28;10388666;28;20100;-67
2021/12/06 20:33:41;;;;;;;9.38;5.50;;;;;;;3.06;60.41;99257.28;10387223;28;20052;-67
2021/12/06 20:38:45;;;;;;;6.85;4.20;;;;;;;2.95;60.40;99225.88;10388143;28;20108;-67
2021/12/06 20:43:48;;;;;;;7.22;5.05;;;;;;;2.93;60.70;99225.94;10386271;28;20108;-67
2021/12/06 20:48:50;;;;;;;6.65;4.72;;;;;;;2.76;60.76;99212.03;10388084;28;20045;-67
2021/12/06 20:53:53;;;;;;;7.15;4.88;;;;;;;2.76;60.94;99204.28;10383580;28;20107;-66
2021/12/06 20:58:56;;;;;;;6.72;4.40;;;;;;;2.78;61.11;99195.59;10384256;28;20048;-67
2021/12/06 21:03:59;;;;;;;8.20;4.90;;;;;;;2.91;60.84;99189.00;10385664;28;20125;-67
2021/12/06 21:09:06;;;;;;;7.18;5.10;;;;;;;3.01;60.58;99182.56;10385425;28;20390;-67
2021/12/06 21:19:16;;;;;;;6.95;4.93;;;;;;;3.13;60.65;99176.03;10386014;28;20205;-67
2021/12/06 21:24:19;;;;;;;10.30;5.40;;;;;;;3.09;60.71;99168.50;10384587;28;20046;-67
2021/12/06 21:29:21;;;;;;;8.15;4.43;;;;;;;3.11;60.43;99161.53;10386105;28;20045;-67
2021/12/06 21:34:23;;;;;;;7.60;5.03;;;;;;;3.05;60.26;99142.78;10385771;28;20437;-67
2021/12/06 21:39:25;;;;;;;7.18;5.60;;;;;;;3.07;60.55;99134.16;10384684;28;20934;-67
2021/12/06 21:44:27;;;;;;;7.82;4.97;;;;;;;3.17;60.39;99119.94;10384704;28;20081;-67
2021/12/06 21:49:28;;;;;;;7.55;4.90;;;;;;;3.23;60.35;99114.50;10385096;28;20216;-67
2021/12/06 21:54:30;;;;;;;7.82;4.90;;;;;;;3.36;59.82;99102.72;10385721;28;20140;-67
2021/12/06 21:59:33;;;;;;;7.20;4.80;;;;;;;3.42;59.81;99094.69;10384540;28;20057;-67
2021/12/06 22:04:35;;;;;;;6.07;4.57;;;;;;;3.36;60.31;99085.47;10384523;28;20496;-67
2021/12/06 22:09:36;;;;;;;7.70;4.93;;;;;;;3.39;60.57;99074.16;10384261;28;20059;-67
2021/12/06 22:14:38;;;;;;;9.38;5.10;;;;;;;3.28;60.97;99063.44;10384183;28;20080;-67
2021/12/06 22:19:41;;;;;;;7.25;5.07;;;;;;;3.12;61.89;99049.53;10383639;28;20107;-67
2021/12/06 22:24:42;;;;;;;10.23;5.65;;;;;;;3.07;62.09;99033.41;10385155;28;20753;-67
2021/12/06 22:29:45;;;;;;;7.30;5.05;;;;;;;2.90;63.01;99026.38;10378601;28;20061;-67
2021/12/06 22:34:46;;;;;;;7.28;5.50;;;;;;;2.90;63.00;99028.97;10380671;28;20046;-67
2021/12/06 22:39:50;;;;;;;12.10;6.40;;;;;;;2.67;63.48;99016.19;10383196;28;20542;-67
2021/12/06 22:44:52;;;;;;;9.32;6.30;;;;;;;2.72;63.91;98994.47;10381729;28;20053;-67
2021/12/06 22:49:54;;;;;;;10.25;7.60;;;;;;;2.54;64.07;98984.06;10383271;28;20050;-66
2021/12/06 22:54:58;;;;;;;11.10;8.57;;;;;;;2.43;64.57;98971.63;10383392;28;20421;-67
2021/12/06 22:59:59;;;;;;;11.43;9.43;;;;;;;2.28;65.20;98964.50;10382334;28;20045;-67
2021/12/06 23:05:03;;;;;;;11.98;9.40;;;;;;;2.07;65.74;98960.25;10382985;28;20503;-66
2021/12/06 23:10:05;;;;;;;12.35;9.07;;;;;;;2.06;65.86;98950.81;10383271;28;20127;-66
2021/12/06 23:15:07;;;;;;;11.18;8.57;;;;;;;2.15;65.71;98934.97;10385533;28;20608;-67
2021/12/06 23:20:10;;;;;;;11.27;8.30;;;;;;;2.28;66.14;98930.13;10390068;28;20053;-66
2021/12/06 23:25:12;;;;;;;13.88;9.95;;;;;;;2.21;66.25;98924.41;10390890;28;20041;-67
2021/12/06 23:30:18;;;;;;;10.98;8.63;;;;;;;2.18;66.74;98903.88;10388976;28;20045;-67
2021/12/06 23:35:25;;;;;;;11.18;7.82;;;;;;;2.32;66.25;98893.81;10389047;28;20568;-67
2021/12/06 23:50:49;;;;;;;12.32;9.27;;;;;;;2.39;66.56;98890.06;10385810;28;20049;-66
2021/12/06 23:55:50;;;;;;;9.82;7.68;;;;;;;2.28;66.98;98879.38;10386924;28;20052;-67
